Time;durP1;ratioP1;P1;durP2;ratioP2;P2;SDS_P1;SDS_P2;PMS_P1;PMS_P2;Temp;Humidity;BMP_temperature;BMP_pressure;BME280_temperature;BME280_humidity;BME280_pressure;Samples;Min_cycle;Max_cycle;Signal;HPM_P1;HPM_P2
2023/08/06 00:01:47;;;;;;;6.43;5.80;;;;;;;;;;4945695;28;20441;-89
2023/08/06 00:04:13;;;;;;;7.87;7.07;;;;;;;;;;4978889;28;20450;-89
2023/08/06 00:06:39;;;;;;;8.03;7.20;;;;;;;;;;4964022;28;20505;-89
2023/08/06 00:09:05;;;;;;;8.30;6.80;;;;;;;;;;4959103;28;20433;-89
2023/08/06 00:11:31;;;;;;;9.47;6.97;;;;;;;;;;4971782;28;20438;-88
2023/08/06 00:13:57;;;;;;;7.10;6.40;;;;;;;;;;4945507;28;20430;-88
2023/08/06 00:16:23;;;;;;;6.43;5.40;;;;;;;;;;4996558;28;20426;-88
2023/08/06 00:18:49;;;;;;;10.83;7.27;;;;;;;;;;4981385;28;20433;-89
2023/08/06 00:21:16;;;;;;;7.30;6.60;;;;;;;;;;4965256;28;20424;-89
2023/08/06 00:23:42;;;;;;;5.80;5.23;;;;;;;;;;4963082;28;20449;-89
2023/08/06 00:26:08;;;;;;;7.47;6.20;;;;;;;;;;4996901;28;20421;-88
2023/08/06 00:28:34;;;;;;;6.70;5.00;;;;;;;;;;4979429;28;21008;-87
2023/08/06 00:30:59;;;;;;;5.70;4.90;;;;;;;;;;4963739;28;20512;-88
2023/08/06 00:33:25;;;;;;;11.03;5.30;;;;;;;;;;4980233;28;20505;-87
2023/08/06 00:35:51;;;;;;;5.77;5.27;;;;;;;;;;4966415;28;20460;-88
2023/08/06 00:38:17;;;;;;;6.60;5.00;;;;;;;;;;4965550;28;20418;-88
2023/08/06 00:40:43;;;;;;;5.30;4.80;;;;;;;;;;4966257;28;20421;-88
2023/08/06 00:43:09;;;;;;;4.77;4.23;;;;;;;;;;4945284;28;20438;-88
2023/08/06 00:45:37;;;;;;;7.10;4.50;;;;;;;;;;4940147;29;20442;-89
2023/08/06 00:48:04;;;;;;;5.67;5.07;;;;;;;;;;4942346;29;20919;-89
2023/08/06 00:50:30;;;;;;;6.20;4.07;;;;;;;;;;4940918;29;20495;-88
2023/08/06 00:52:56;;;;;;;6.03;3.97;;;;;;;;;;4950457;28;20529;-89
2023/08/06 00:55:22;;;;;;;4.13;3.73;;;;;;;;;;4946803;29;20548;-88
2023/08/06 00:57:48;;;;;;;5.17;3.90;;;;;;;;;;4951849;29;20439;-88
2023/08/06 01:00:14;;;;;;;3.87;3.47;;;;;;;;;;4940703;29;20494;-88
2023/08/06 01:02:40;;;;;;;4.90;4.47;;;;;;;;;;4942390;29;20484;-88
2023/08/06 01:05:06;;;;;;;4.87;4.30;;;;;;;;;;4954592;29;20439;-89
2023/08/06 01:07:58;;;;;;;4.70;4.30;;;;;;;;;;4941811;29;20434;-88
2023/08/06 01:10:28;;;;;;;5.63;4.37;;;;;;;;;;4948185;28;20434;-89
2023/08/06 01:13:09;;;;;;;6.30;5.00;;;;;;;;;;4933754;29;20423;-88
2023/08/06 01:15:48;;;;;;;5.73;5.13;;;;;;;;;;5016046;28;20508;-88
2023/08/06 01:18:14;;;;;;;4.10;3.70;;;;;;;;;;4991165;28;20422;-89
2023/08/06 01:20:40;;;;;;;5.33;3.97;;;;;;;;;;4981134;28;20452;-88
2023/08/06 01:23:06;;;;;;;6.10;4.83;;;;;;;;;;4981857;28;20434;-89
2023/08/06 01:25:51;;;;;;;5.17;4.30;;;;;;;;;;4978577;28;20508;-89
2023/08/06 01:28:28;;;;;;;4.37;3.97;;;;;;;;;;4978975;28;20745;-88
2023/08/06 01:30:55;;;;;;;6.13;4.57;;;;;;;;;;4995225;28;20428;-89
2023/08/06 01:33:22;;;;;;;6.00;4.80;;;;;;;;;;5002671;28;20413;-89
2023/08/06 01:35:48;;;;;;;5.30;4.77;;;;;;;;;;4995373;28;20940;-89
2023/08/06 01:38:14;;;;;;;6.13;4.70;;;;;;;;;;4977339;28;20988;-89
2023/08/06 01:40:40;;;;;;;4.33;3.50;;;;;;;;;;4980631;28;20428;-89
2023/08/06 01:43:06;;;;;;;4.80;4.30;;;;;;;;;;4983687;28;20412;-88
2023/08/06 01:45:32;;;;;;;4.67;4.10;;;;;;;;;;4979137;28;20963;-88
2023/08/06 01:47:58;;;;;;;4.67;3.67;;;;;;;;;;4981281;28;20425;-88
2023/08/06 01:50:24;;;;;;;4.47;3.60;;;;;;;;;;4996221;28;20787;-88
2023/08/06 01:52:50;;;;;;;6.20;4.13;;;;;;;;;;4982526;28;20472;-87
2023/08/06 01:55:16;;;;;;;4.17;3.20;;;;;;;;;;4996509;28;20461;-89
2023/08/06 01:57:42;;;;;;;4.17;3.60;;;;;;;;;;4982702;28;20789;-89
2023/08/06 02:00:08;;;;;;;3.90;3.60;;;;;;;;;;4980358;28;20499;-89
2023/08/06 02:02:34;;;;;;;4.93;4.43;;;;;;;;;;4981524;28;20443;-89
2023/08/06 02:05:00;;;;;;;8.50;3.03;;;;;;;;;;4979917;28;20472;-89
2023/08/06 02:07:26;;;;;;;4.33;3.17;;;;;;;;;;4984299;28;20433;-89
2023/08/06 02:09:52;;;;;;;4.30;3.90;;;;;;;;;;4982625;28;20432;-89
2023/08/06 02:12:18;;;;;;;3.60;3.10;;;;;;;;;;5001846;28;20456;-89
2023/08/06 02:14:44;;;;;;;3.13;2.77;;;;;;;;;;4984106;28;20527;-88
2023/08/06 02:17:10;;;;;;;3.33;2.70;;;;;;;;;;4985089;28;20425;-89
2023/08/06 02:19:36;;;;;;;4.10;2.70;;;;;;;;;;4984382;28;20977;-88
2023/08/06 02:22:02;;;;;;;3.50;2.50;;;;;;;;;;4985613;28;20436;-88
2023/08/06 02:24:28;;;;;;;7.93;2.80;;;;;;;;;;4983426;28;20421;-89
2023/08/06 02:26:56;;;;;;;3.67;3.10;;;;;;;;;;4981743;28;21026;-89
2023/08/06 02:29:22;;;;;;;8.43;2.90;;;;;;;;;;5000031;28;20951;-89
2023/08/06 02:31:48;;;;;;;3.40;2.77;;;;;;;;;;4999666;28;20421;-89
2023/08/06 02:34:14;;;;;;;3.97;3.23;;;;;;;;;;4999351;28;20803;-89
2023/08/06 02:36:40;;;;;;;4.73;2.53;;;;;;;;;;4972887;28;20446;-89
2023/08/06 02:39:06;;;;;;;3.97;2.63;;;;;;;;;;4994008;28;20440;-89
2023/08/06 02:41:32;;;;;;;4.00;2.60;;;;;;;;;;4984946;28;20429;-89
2023/08/06 02:43:58;;;;;;;8.03;2.90;;;;;;;;;;4985196;28;20442;-88
2023/08/06 02:46:24;;;;;;;4.40;3.03;;;;;;;;;;4955651;28;20449;-88
2023/08/06 02:48:50;;;;;;;3.17;2.80;;;;;;;;;;4978520;28;20431;-89
2023/08/06 02:51:16;;;;;;;3.60;2.70;;;;;;;;;;4964063;28;20650;-89
2023/08/06 02:53:42;;;;;;;4.87;3.50;;;;;;;;;;4986039;28;20496;-89
2023/08/06 02:56:08;;;;;;;4.30;3.70;;;;;;;;;;4964764;28;20476;-89
2023/08/06 02:58:34;;;;;;;5.50;2.97;;;;;;;;;;4964919;28;20433;-89
2023/08/06 03:01:00;;;;;;;4.70;2.90;;;;;;;;;;4965002;28;20437;-89
2023/08/06 03:03:27;;;;;;;4.20;3.23;;;;;;;;;;4967282;28;20464;-89
2023/08/06 03:05:53;;;;;;;4.57;2.63;;;;;;;;;;4962766;28;20852;-89
2023/08/06 03:08:22;;;;;;;3.73;3.00;;;;;;;;;;4965343;28;20451;-89
2023/08/06 03:10:48;;;;;;;3.53;2.93;;;;;;;;;;4959859;28;20532;-89
2023/08/06 03:13:14;;;;;;;2.90;2.47;;;;;;;;;;4964837;28;20468;-89
2023/08/06 03:15:40;;;;;;;4.47;2.77;;;;;;;;;;4975134;28;20526;-89
2023/08/06 03:18:06;;;;;;;4.67;3.50;;;;;;;;;;4988430;28;20433;-89
2023/08/06 03:20:35;;;;;;;5.10;2.97;;;;;;;;;;4997332;28;20426;-88
2023/08/06 03:23:01;;;;;;;3.17;2.73;;;;;;;;;;4985472;28;20425;-89
2023/08/06 03:25:27;;;;;;;3.27;2.90;;;;;;;;;;4983029;28;20511;-88
2023/08/06 03:27:53;;;;;;;3.73;2.37;;;;;;;;;;4983150;28;20437;-88
2023/08/06 03:30:19;;;;;;;5.33;2.53;;;;;;;;;;4981510;28;20496;-89
2023/08/06 03:32:47;;;;;;;2.70;2.13;;;;;;;;;;4984455;28;20417;-89
2023/08/06 03:35:12;;;;;;;3.27;2.37;;;;;;;;;;4997553;28;20785;-88
2023/08/06 03:37:38;;;;;;;3.90;2.60;;;;;;;;;;4983405;28;20484;-88
2023/08/06 03:40:05;;;;;;;5.07;2.83;;;;;;;;;;4981232;28;20426;-88
2023/08/06 03:42:31;;;;;;;3.43;2.50;;;;;;;;;;4982430;28;20425;-89
2023/08/06 03:44:57;;;;;;;3.83;2.53;;;;;;;;;;4996753;28;20436;-89
2023/08/06 03:47:25;;;;;;;4.70;3.03;;;;;;;;;;4981930;28;20429;-89
2023/08/06 03:49:51;;;;;;;3.77;2.70;;;;;;;;;;4981730;28;20431;-88
2023/08/06 03:52:20;;;;;;;4.53;4.07;;;;;;;;;;4999781;28;20992;-90
2023/08/06 03:54:46;;;;;;;3.60;2.70;;;;;;;;;;4996927;28;20461;-88
2023/08/06 03:57:15;;;;;;;4.30;2.93;;;;;;;;;;4982528;28;20445;-88
2023/08/06 03:59:41;;;;;;;3.70;2.67;;;;;;;;;;4992888;28;20422;-88
2023/08/06 04:02:07;;;;;;;3.13;2.80;;;;;;;;;;4982347;28;20524;-88
2023/08/06 04:04:33;;;;;;;5.53;2.47;;;;;;;;;;4982277;28;20452;-88
2023/08/06 04:06:59;;;;;;;3.13;2.70;;;;;;;;;;4982444;28;20444;-88
2023/08/06 04:09:25;;;;;;;6.03;2.40;;;;;;;;;;4982592;28;20409;-89
2023/08/06 04:11:52;;;;;;;3.77;2.30;;;;;;;;;;4979919;28;20448;-88
2023/08/06 04:14:18;;;;;;;3.30;2.50;;;;;;;;;;4972918;28;20425;-89
2023/08/06 04:16:45;;;;;;;4.33;2.60;;;;;;;;;;4963702;28;20504;-87
2023/08/06 04:19:11;;;;;;;5.40;3.40;;;;;;;;;;4964206;28;20409;-89
2023/08/06 04:21:37;;;;;;;6.30;3.03;;;;;;;;;;4979770;28;20805;-88
2023/08/06 04:24:03;;;;;;;2.90;2.47;;;;;;;;;;4975719;28;20426;-87
2023/08/06 04:26:29;;;;;;;5.73;2.83;;;;;;;;;;4978968;28;20421;-88
2023/08/06 04:28:55;;;;;;;6.27;2.83;;;;;;;;;;4962084;28;20443;-89
2023/08/06 04:31:23;;;;;;;5.70;2.90;;;;;;;;;;4955087;29;20436;-89
2023/08/06 04:33:49;;;;;;;4.07;2.60;;;;;;;;;;4943459;29;20466;-89
2023/08/06 04:36:15;;;;;;;4.20;2.77;;;;;;;;;;4957301;28;20461;-89
2023/08/06 04:38:44;;;;;;;3.70;2.57;;;;;;;;;;4956941;28;20494;-89
2023/08/06 04:41:11;;;;;;;5.80;2.97;;;;;;;;;;4955093;29;20425;-89
2023/08/06 04:43:37;;;;;;;3.87;2.40;;;;;;;;;;4960517;28;20422;-89
2023/08/06 04:46:03;;;;;;;2.97;2.07;;;;;;;;;;4956073;28;20504;-90
2023/08/06 04:48:29;;;;;;;4.63;2.20;;;;;;;;;;4972810;28;20429;-89
2023/08/06 04:50:55;;;;;;;2.83;2.10;;;;;;;;;;4958039;28;20459;-89
2023/08/06 04:53:21;;;;;;;3.00;2.20;;;;;;;;;;4963378;28;20477;-90
2023/08/06 04:55:47;;;;;;;2.50;1.83;;;;;;;;;;4943683;28;20457;-90
2023/08/06 04:58:13;;;;;;;3.63;2.13;;;;;;;;;;4947899;28;20426;-90
2023/08/06 05:00:39;;;;;;;2.80;1.80;;;;;;;;;;4954767;28;20450;-89
2023/08/06 05:03:06;;;;;;;3.20;2.30;;;;;;;;;;4953251;28;20425;-90
2023/08/06 05:05:32;;;;;;;4.53;2.03;;;;;;;;;;4966477;28;20960;-90
2023/08/06 05:07:58;;;;;;;3.17;2.27;;;;;;;;;;4965938;28;20500;-89
2023/08/06 05:10:26;;;;;;;2.33;1.80;;;;;;;;;;4985910;28;20457;-90
2023/08/06 05:12:53;;;;;;;4.40;1.80;;;;;;;;;;4984761;28;20424;-90
2023/08/06 05:15:19;;;;;;;1.93;1.50;;;;;;;;;;4980604;28;20462;-90
2023/08/06 05:17:45;;;;;;;2.70;1.83;;;;;;;;;;4944554;28;20488;-90
2023/08/06 05:20:11;;;;;;;6.57;2.00;;;;;;;;;;4962152;28;20418;-89
2023/08/06 05:22:37;;;;;;;2.57;1.53;;;;;;;;;;4956915;29;20798;-90
2023/08/06 05:25:04;;;;;;;2.07;1.47;;;;;;;;;;4928936;28;20439;-89
2023/08/06 05:27:30;;;;;;;3.00;1.60;;;;;;;;;;4945722;28;20773;-89
2023/08/06 05:29:56;;;;;;;5.30;1.53;;;;;;;;;;4956109;28;20465;-90
2023/08/06 05:32:28;;;;;;;3.37;1.60;;;;;;;;;;4930249;28;20445;-90
2023/08/06 05:34:54;;;;;;;2.30;1.40;;;;;;;;;;4966817;28;20564;-90
2023/08/06 05:37:20;;;;;;;3.23;1.63;;;;;;;;;;4960514;28;20508;-90
2023/08/06 05:39:46;;;;;;;3.43;1.30;;;;;;;;;;4955719;29;20415;-90
2023/08/06 05:42:12;;;;;;;2.10;1.40;;;;;;;;;;4958603;28;20429;-90
2023/08/06 05:44:38;;;;;;;3.27;1.23;;;;;;;;;;4967439;28;20429;-90
2023/08/06 05:47:04;;;;;;;2.80;1.20;;;;;;;;;;4980821;28;20788;-89
2023/08/06 05:49:30;;;;;;;4.70;1.20;;;;;;;;;;4983007;28;20440;-90
2023/08/06 05:51:56;;;;;;;2.57;1.27;;;;;;;;;;4982937;28;20489;-90
2023/08/06 05:54:22;;;;;;;1.87;1.20;;;;;;;;;;5003786;28;20460;-90
2023/08/06 05:56:48;;;;;;;4.27;1.43;;;;;;;;;;4984967;28;20475;-90
2023/08/06 05:59:14;;;;;;;2.43;1.60;;;;;;;;;;4986124;28;20954;-90
2023/08/06 06:01:40;;;;;;;1.73;1.37;;;;;;;;;;4986176;28;20410;-90
2023/08/06 06:04:14;;;;;;;2.10;1.13;;;;;;;;;;4990236;28;20416;-90
2023/08/06 06:06:41;;;;;;;1.63;1.20;;;;;;;;;;5006842;28;20487;-90
2023/08/06 06:09:07;;;;;;;3.33;0.80;;;;;;;;;;4990078;28;20516;-90
2023/08/06 06:11:33;;;;;;;1.77;1.00;;;;;;;;;;5001686;28;20445;-90
2023/08/06 06:13:59;;;;;;;1.53;0.90;;;;;;;;;;4987375;28;20432;-89
2023/08/06 06:16:25;;;;;;;3.03;1.00;;;;;;;;;;4997626;28;20461;-90
2023/08/06 06:18:54;;;;;;;3.13;1.37;;;;;;;;;;4988378;28;20500;-91
2023/08/06 06:21:20;;;;;;;1.30;0.77;;;;;;;;;;4985783;28;20484;-89
2023/08/06 06:23:46;;;;;;;3.30;0.80;;;;;;;;;;4987006;28;20433;-89
2023/08/06 06:26:13;;;;;;;2.23;0.80;;;;;;;;;;4963795;28;20438;-89
2023/08/06 06:28:39;;;;;;;1.20;0.67;;;;;;;;;;4948758;28;20469;-90
2023/08/06 06:31:05;;;;;;;2.07;0.70;;;;;;;;;;4964532;28;20953;-90
2023/08/06 06:33:31;;;;;;;4.20;1.00;;;;;;;;;;4949553;28;20584;-89
2023/08/06 06:35:58;;;;;;;1.30;0.70;;;;;;;;;;4949596;28;20473;-90
2023/08/06 06:38:31;;;;;;;1.20;0.73;;;;;;;;;;4965906;28;20436;-89
2023/08/06 06:40:58;;;;;;;4.27;0.77;;;;;;;;;;4959219;28;20450;-89
2023/08/06 06:43:24;;;;;;;2.47;0.73;;;;;;;;;;4966310;28;20429;-89
2023/08/06 06:45:54;;;;;;;5.50;0.80;;;;;;;;;;4952875;28;20851;-90
2023/08/06 06:48:20;;;;;;;1.20;0.70;;;;;;;;;;4963964;28;20477;-90
2023/08/06 06:50:48;;;;;;;2.10;0.80;;;;;;;;;;4954222;28;20449;-89
2023/08/06 06:53:15;;;;;;;1.20;0.60;;;;;;;;;;4949669;28;21960;-89
2023/08/06 06:55:41;;;;;;;1.57;1.03;;;;;;;;;;4967716;28;20513;-90
2023/08/06 06:58:07;;;;;;;1.20;0.70;;;;;;;;;;4998619;28;20445;-91
2023/08/06 07:00:33;;;;;;;2.27;0.83;;;;;;;;;;5003124;28;20429;-89
2023/08/06 07:02:59;;;;;;;1.77;0.90;;;;;;;;;;5018328;28;20529;-90
2023/08/06 07:05:25;;;;;;;3.63;1.03;;;;;;;;;;5007049;28;20440;-89
2023/08/06 07:07:51;;;;;;;2.10;0.83;;;;;;;;;;5002690;28;20443;-89
2023/08/06 07:10:17;;;;;;;1.30;0.87;;;;;;;;;;4992308;28;20425;-88
2023/08/06 07:12:43;;;;;;;1.20;0.70;;;;;;;;;;4979227;28;20437;-88
2023/08/06 07:15:10;;;;;;;1.50;1.00;;;;;;;;;;4996196;28;20468;-88
2023/08/06 07:17:36;;;;;;;1.27;0.60;;;;;;;;;;4980176;28;20440;-88
2023/08/06 07:20:03;;;;;;;1.97;0.50;;;;;;;;;;4986336;28;20457;-90
2023/08/06 07:22:29;;;;;;;1.70;1.10;;;;;;;;;;4985331;28;20433;-90
2023/08/06 07:24:55;;;;;;;1.53;0.83;;;;;;;;;;5005441;28;20916;-90
2023/08/06 07:27:21;;;;;;;1.30;0.90;;;;;;;;;;5001654;28;20425;-89
2023/08/06 07:29:48;;;;;;;1.93;1.20;;;;;;;;;;4986794;28;20436;-90
2023/08/06 07:32:14;;;;;;;1.70;0.73;;;;;;;;;;4976723;28;20448;-89
2023/08/06 07:34:40;;;;;;;2.10;0.60;;;;;;;;;;5002887;28;20477;-90
2023/08/06 07:37:06;;;;;;;1.17;0.60;;;;;;;;;;4985875;28;20432;-90
2023/08/06 07:39:32;;;;;;;2.80;1.00;;;;;;;;;;4984635;28;20495;-89
2023/08/06 07:41:58;;;;;;;1.80;1.33;;;;;;;;;;4984976;28;20424;-90
2023/08/06 07:44:24;;;;;;;1.47;0.70;;;;;;;;;;4990859;28;20517;-89
2023/08/06 07:46:50;;;;;;;1.27;0.73;;;;;;;;;;4985549;28;20429;-88
2023/08/06 07:49:16;;;;;;;1.00;0.60;;;;;;;;;;4986425;28;20433;-89
2023/08/06 07:51:42;;;;;;;1.00;0.50;;;;;;;;;;4983854;28;20595;-89
2023/08/06 07:54:09;;;;;;;0.90;0.50;;;;;;;;;;4985905;28;20434;-88
2023/08/06 07:56:36;;;;;;;1.17;0.80;;;;;;;;;;4985451;28;20425;-90
2023/08/06 07:59:02;;;;;;;4.00;0.70;;;;;;;;;;4987587;28;20440;-90
2023/08/06 08:01:28;;;;;;;1.37;0.67;;;;;;;;;;4984832;28;20421;-89
2023/08/06 08:03:54;;;;;;;2.10;1.10;;;;;;;;;;4982537;28;20476;-90
2023/08/06 08:06:20;;;;;;;1.77;0.70;;;;;;;;;;4969731;28;20449;-89
2023/08/06 08:08:47;;;;;;;1.10;0.57;;;;;;;;;;4961635;28;20442;-89
2023/08/06 08:11:15;;;;;;;2.20;0.80;;;;;;;;;;4944161;29;20438;-90
2023/08/06 08:13:41;;;;;;;1.50;0.70;;;;;;;;;;4979352;28;20434;-90
2023/08/06 08:16:06;;;;;;;1.30;0.50;;;;;;;;;;4947973;28;20461;-90
2023/08/06 08:18:42;;;;;;;1.70;0.80;;;;;;;;;;4950884;28;20469;-90
2023/08/06 08:21:08;;;;;;;1.20;0.50;;;;;;;;;;4969119;29;20569;-89
2023/08/06 08:23:34;;;;;;;1.00;0.50;;;;;;;;;;4967728;28;20495;-90
2023/08/06 08:26:02;;;;;;;1.10;0.50;;;;;;;;;;4950862;28;21023;-89
2023/08/06 08:28:28;;;;;;;1.37;0.50;;;;;;;;;;4951595;28;20445;-89
2023/08/06 08:30:54;;;;;;;2.10;0.67;;;;;;;;;;4950267;28;20442;-88
2023/08/06 08:33:20;;;;;;;1.00;0.50;;;;;;;;;;4947200;28;20470;-89
2023/08/06 08:35:47;;;;;;;0.90;0.47;;;;;;;;;;4951363;28;20461;-88
2023/08/06 08:38:13;;;;;;;0.90;0.50;;;;;;;;;;5001900;28;20920;-89
2023/08/06 08:40:43;;;;;;;1.10;0.60;;;;;;;;;;4998794;28;20452;-89
2023/08/06 08:43:09;;;;;;;1.00;0.50;;;;;;;;;;5009864;28;20435;-89
2023/08/06 08:45:36;;;;;;;0.90;0.40;;;;;;;;;;4999383;28;20463;-88
2023/08/06 08:48:02;;;;;;;1.30;0.60;;;;;;;;;;5012691;28;20496;-88
2023/08/06 08:50:28;;;;;;;0.90;0.50;;;;;;;;;;4997645;28;20390;-90
2023/08/06 08:52:54;;;;;;;1.00;0.60;;;;;;;;;;4969872;28;20457;-90
2023/08/06 08:55:21;;;;;;;1.00;0.50;;;;;;;;;;4966633;28;20465;-90
2023/08/06 08:57:47;;;;;;;1.10;0.57;;;;;;;;;;4979526;28;20475;-89
2023/08/06 09:00:14;;;;;;;0.90;0.43;;;;;;;;;;4964865;28;20427;-89
2023/08/06 09:02:40;;;;;;;0.90;0.43;;;;;;;;;;4985993;28;20433;-90
2023/08/06 09:05:08;;;;;;;1.00;0.50;;;;;;;;;;4981142;28;20478;-89
2023/08/06 09:07:39;;;;;;;0.90;0.50;;;;;;;;;;4976558;28;20449;-89
2023/08/06 09:10:06;;;;;;;0.90;0.50;;;;;;;;;;4968029;28;20430;-90
2023/08/06 09:12:32;;;;;;;1.00;0.60;;;;;;;;;;4986326;28;20505;-89
2023/08/06 09:14:58;;;;;;;2.23;0.50;;;;;;;;;;4988114;28;20500;-89
2023/08/06 09:17:24;;;;;;;0.90;0.40;;;;;;;;;;4965032;28;20438;-90
2023/08/06 09:19:50;;;;;;;0.90;0.50;;;;;;;;;;4972861;28;20441;-90
2023/08/06 09:22:16;;;;;;;1.00;0.50;;;;;;;;;;4967603;28;20426;-88
2023/08/06 09:25:09;;;;;;;1.47;0.50;;;;;;;;;;4962169;28;20825;-89
2023/08/06 09:27:36;;;;;;;1.03;0.50;;;;;;;;;;4975396;28;20438;-90
2023/08/06 09:30:03;;;;;;;1.00;0.50;;;;;;;;;;4976627;28;20517;-89
2023/08/06 09:32:37;;;;;;;1.00;0.50;;;;;;;;;;4987283;28;20452;-89
2023/08/06 09:35:05;;;;;;;0.90;0.47;;;;;;;;;;4985077;28;20453;-89
2023/08/06 09:37:36;;;;;;;0.90;0.40;;;;;;;;;;5001507;28;20445;-89
2023/08/06 09:40:02;;;;;;;0.90;0.43;;;;;;;;;;5002392;28;20441;-89
2023/08/06 09:42:28;;;;;;;0.90;0.40;;;;;;;;;;4979778;28;20432;-88
2023/08/06 09:44:54;;;;;;;1.00;0.50;;;;;;;;;;5003326;28;20433;-89
2023/08/06 09:47:22;;;;;;;1.77;0.67;;;;;;;;;;4982589;28;20437;-89
2023/08/06 09:49:55;;;;;;;1.00;0.50;;;;;;;;;;5006476;28;20496;-89
2023/08/06 09:52:23;;;;;;;0.93;0.47;;;;;;;;;;4982093;28;20801;-90
2023/08/06 09:54:49;;;;;;;1.00;0.50;;;;;;;;;;4982151;28;20536;-89
2023/08/06 09:57:15;;;;;;;0.90;0.40;;;;;;;;;;4984504;28;20437;-88
2023/08/06 09:59:42;;;;;;;1.73;0.50;;;;;;;;;;4999242;28;20432;-89
2023/08/06 10:02:11;;;;;;;0.90;0.40;;;;;;;;;;4988554;28;20520;-88
2023/08/06 10:04:37;;;;;;;1.00;0.57;;;;;;;;;;4978991;28;20425;-87
2023/08/06 10:07:04;;;;;;;0.90;0.50;;;;;;;;;;4987220;28;20840;-87
2023/08/06 10:09:30;;;;;;;1.20;0.50;;;;;;;;;;4982919;28;20475;-87
2023/08/06 10:11:56;;;;;;;1.00;0.50;;;;;;;;;;5001213;28;20440;-87
2023/08/06 10:14:22;;;;;;;1.63;0.50;;;;;;;;;;4981577;28;20443;-88
2023/08/06 10:16:48;;;;;;;0.90;0.50;;;;;;;;;;4999723;28;20438;-89
2023/08/06 10:19:14;;;;;;;0.90;0.50;;;;;;;;;;4995115;28;20424;-88
2023/08/06 10:21:40;;;;;;;1.00;0.50;;;;;;;;;;4989239;28;20441;-90
2023/08/06 10:24:10;;;;;;;4.13;0.80;;;;;;;;;;4983324;28;20471;-89
2023/08/06 10:26:36;;;;;;;3.33;1.27;;;;;;;;;;4981783;28;21017;-88
2023/08/06 10:29:23;;;;;;;1.00;0.50;;;;;;;;;;4994002;28;20445;-88
2023/08/06 10:31:56;;;;;;;2.03;0.50;;;;;;;;;;4998840;28;20520;-88
2023/08/06 10:34:22;;;;;;;0.90;0.40;;;;;;;;;;5001256;28;20440;-88
2023/08/06 10:36:48;;;;;;;0.90;0.50;;;;;;;;;;5004553;28;20584;-88
2023/08/06 10:39:14;;;;;;;1.00;0.50;;;;;;;;;;5000883;28;20428;-87
2023/08/06 10:41:40;;;;;;;1.10;0.70;;;;;;;;;;4986212;28;20501;-88
2023/08/06 10:44:09;;;;;;;1.77;0.63;;;;;;;;;;5002375;28;20433;-88
2023/08/06 10:46:35;;;;;;;1.40;0.90;;;;;;;;;;4989772;28;20428;-88
2023/08/06 10:49:02;;;;;;;1.93;1.03;;;;;;;;;;4985889;28;20456;-88
2023/08/06 11:01:51;;;;;;;1.10;0.50;;;;;;;;;;606103;22;20839;-88
2023/08/06 11:04:17;;;;;;;0.90;0.50;;;;;;;;;;5017058;28;20440;-89
2023/08/06 11:06:43;;;;;;;0.90;0.50;;;;;;;;;;5020572;28;20189;-88
2023/08/06 11:09:10;;;;;;;1.00;0.50;;;;;;;;;;5006628;28;20433;-89
2023/08/06 11:11:36;;;;;;;0.90;0.50;;;;;;;;;;5006525;28;20431;-88
2023/08/06 11:14:02;;;;;;;1.83;0.50;;;;;;;;;;5000458;28;20429;-89
2023/08/06 11:16:28;;;;;;;1.30;0.70;;;;;;;;;;5001513;28;20939;-89
2023/08/06 11:18:56;;;;;;;0.90;0.50;;;;;;;;;;5002512;28;20460;-88
2023/08/06 11:21:22;;;;;;;1.27;0.73;;;;;;;;;;5028067;28;20464;-90
2023/08/06 11:23:48;;;;;;;1.10;0.60;;;;;;;;;;4999388;28;20469;-89
2023/08/06 11:26:19;;;;;;;1.40;0.90;;;;;;;;;;5006758;28;20428;-91
2023/08/06 11:28:45;;;;;;;1.30;0.60;;;;;;;;;;5023973;28;20429;-90
2023/08/06 11:31:19;;;;;;;2.07;1.40;;;;;;;;;;5020640;28;20432;-91
2023/08/06 11:33:53;;;;;;;1.50;0.97;;;;;;;;;;5018227;28;20447;-90
2023/08/06 11:36:29;;;;;;;1.20;0.80;;;;;;;;;;5022176;28;20908;-90
2023/08/06 11:38:56;;;;;;;1.20;0.80;;;;;;;;;;5019971;28;20656;-90
2023/08/06 11:41:22;;;;;;;1.67;0.80;;;;;;;;;;4999834;28;20444;-90
2023/08/06 11:43:48;;;;;;;1.40;0.90;;;;;;;;;;4970645;28;20438;-88
2023/08/06 11:46:14;;;;;;;1.50;0.90;;;;;;;;;;4965971;28;20437;-88
2023/08/06 11:49:06;;;;;;;2.10;1.00;;;;;;;;;;4979293;28;20442;-89
2023/08/06 11:51:33;;;;;;;1.83;1.30;;;;;;;;;;4984580;28;20462;-88
2023/08/06 11:53:59;;;;;;;1.57;1.13;;;;;;;;;;4969570;28;20485;-88
2023/08/06 11:56:26;;;;;;;1.30;0.90;;;;;;;;;;4974806;28;20470;-88
2023/08/06 11:58:52;;;;;;;1.73;1.07;;;;;;;;;;4997098;28;21558;-89
2023/08/06 12:01:19;;;;;;;1.63;1.10;;;;;;;;;;4981927;28;20430;-88
2023/08/06 12:03:44;;;;;;;2.20;0.87;;;;;;;;;;4981617;28;20449;-88
2023/08/06 12:06:14;;;;;;;4.77;1.40;;;;;;;;;;4985062;28;20436;-88
2023/08/06 12:08:41;;;;;;;1.40;0.90;;;;;;;;;;4984226;28;20437;-89
2023/08/06 12:11:07;;;;;;;1.60;1.10;;;;;;;;;;4985633;28;20421;-88
2023/08/06 12:13:33;;;;;;;1.67;1.07;;;;;;;;;;4983463;28;20487;-89
2023/08/06 12:15:59;;;;;;;1.97;1.10;;;;;;;;;;5021083;28;20495;-89
2023/08/06 12:18:25;;;;;;;1.80;1.20;;;;;;;;;;5004584;28;20869;-91
2023/08/06 12:20:53;;;;;;;1.60;1.00;;;;;;;;;;5004757;28;20444;-89
2023/08/06 12:23:19;;;;;;;2.40;1.20;;;;;;;;;;5024316;28;20444;-89
2023/08/06 12:25:45;;;;;;;1.30;0.90;;;;;;;;;;5017437;28;20412;-88
2023/08/06 12:28:13;;;;;;;2.10;1.30;;;;;;;;;;5003211;28;20435;-89
2023/08/06 12:30:41;;;;;;;1.43;0.97;;;;;;;;;;4965115;28;20426;-90
2023/08/06 12:33:09;;;;;;;1.40;0.90;;;;;;;;;;4965696;28;20433;-88
2023/08/06 12:35:35;;;;;;;1.87;1.23;;;;;;;;;;4966986;28;20464;-89
2023/08/06 12:38:01;;;;;;;1.90;1.10;;;;;;;;;;4973913;28;20450;-89
2023/08/06 12:40:27;;;;;;;8.73;1.23;;;;;;;;;;4958214;28;20468;-88
2023/08/06 12:42:53;;;;;;;1.83;1.00;;;;;;;;;;4950134;28;20434;-89
2023/08/06 12:45:21;;;;;;;1.80;1.20;;;;;;;;;;4948858;28;20432;-90
2023/08/06 12:47:47;;;;;;;1.23;0.90;;;;;;;;;;4951298;28;20421;-88
2023/08/06 12:50:13;;;;;;;2.20;1.10;;;;;;;;;;4949532;28;20581;-87
2023/08/06 12:52:39;;;;;;;1.33;0.80;;;;;;;;;;5066515;23;20614;-88
2023/08/06 12:55:05;;;;;;;2.43;0.87;;;;;;;;;;5000191;28;20608;-88
2023/08/06 12:57:31;;;;;;;1.67;0.97;;;;;;;;;;5002987;28;20420;-89
2023/08/06 12:59:57;;;;;;;1.40;0.80;;;;;;;;;;5001707;28;20503;-89
2023/08/06 13:02:23;;;;;;;2.20;1.10;;;;;;;;;;4999683;28;20471;-89
2023/08/06 13:04:49;;;;;;;1.97;0.73;;;;;;;;;;4996049;28;20961;-88
2023/08/06 13:07:17;;;;;;;1.33;0.83;;;;;;;;;;5002794;28;20443;-89
2023/08/06 13:09:44;;;;;;;2.07;1.33;;;;;;;;;;5013805;28;20448;-89
2023/08/06 13:12:10;;;;;;;2.03;1.10;;;;;;;;;;5003878;28;20781;-89
2023/08/06 13:14:36;;;;;;;2.00;1.00;;;;;;;;;;5004759;28;20447;-90
2023/08/06 13:17:06;;;;;;;1.40;0.90;;;;;;;;;;5001982;28;20508;-88
2023/08/06 13:19:35;;;;;;;2.10;0.90;;;;;;;;;;5004992;28;20467;-89
2023/08/06 13:22:04;;;;;;;1.50;0.80;;;;;;;;;;5012158;28;20460;-89
2023/08/06 13:24:32;;;;;;;2.80;1.10;;;;;;;;;;5027008;28;20427;-90
2023/08/06 13:27:25;;;;;;;1.73;0.90;;;;;;;;;;5020622;28;20483;-91
2023/08/06 13:29:51;;;;;;;2.10;0.80;;;;;;;;;;5011972;28;20454;-89
2023/08/06 13:32:17;;;;;;;1.27;0.70;;;;;;;;;;5024868;28;20432;-90
2023/08/06 13:34:43;;;;;;;1.10;0.70;;;;;;;;;;5011925;28;20557;-90
2023/08/06 13:37:09;;;;;;;1.23;0.67;;;;;;;;;;5003415;28;20923;-89
2023/08/06 13:39:35;;;;;;;1.70;0.90;;;;;;;;;;5002733;28;20450;-89
2023/08/06 13:42:01;;;;;;;3.50;0.80;;;;;;;;;;4992655;28;20429;-89
2023/08/06 13:44:28;;;;;;;1.10;0.60;;;;;;;;;;5001852;28;20420;-87
2023/08/06 13:46:54;;;;;;;2.53;1.20;;;;;;;;;;5001435;28;20428;-89
2023/08/06 13:49:20;;;;;;;1.50;0.90;;;;;;;;;;4996002;28;20451;-90
2023/08/06 13:51:46;;;;;;;3.00;0.90;;;;;;;;;;4996172;28;20448;-89
2023/08/06 13:54:12;;;;;;;2.13;0.90;;;;;;;;;;4997148;28;20430;-90
2023/08/06 13:56:38;;;;;;;1.30;0.70;;;;;;;;;;4993915;28;20473;-89
2023/08/06 13:59:05;;;;;;;1.40;0.83;;;;;;;;;;5010090;28;20427;-89
2023/08/06 14:01:31;;;;;;;1.53;0.77;;;;;;;;;;4996819;28;20456;-90
2023/08/06 14:03:57;;;;;;;1.23;0.70;;;;;;;;;;4962581;28;21262;-91
2023/08/06 14:06:24;;;;;;;1.33;0.90;;;;;;;;;;4944164;28;21004;-89
2023/08/06 14:08:50;;;;;;;1.30;0.90;;;;;;;;;;4958912;28;20486;-90
2023/08/06 14:11:16;;;;;;;3.07;0.97;;;;;;;;;;4942589;28;20879;-89
2023/08/06 14:13:44;;;;;;;1.30;0.60;;;;;;;;;;4962490;28;20449;-90
2023/08/06 14:16:10;;;;;;;1.30;0.70;;;;;;;;;;4947293;28;21009;-89
2023/08/06 14:18:38;;;;;;;4.03;0.83;;;;;;;;;;4961689;28;20532;-89
2023/08/06 14:21:04;;;;;;;1.20;0.73;;;;;;;;;;4948834;28;20455;-88
2023/08/06 14:23:30;;;;;;;1.20;0.73;;;;;;;;;;4949577;28;20461;-91
2023/08/06 14:25:56;;;;;;;1.60;0.90;;;;;;;;;;4947391;28;21002;-89
2023/08/06 14:28:21;;;;;;;1.40;0.90;;;;;;;;;;4949140;28;20454;-90
2023/08/06 14:30:48;;;;;;;1.23;0.70;;;;;;;;;;4962452;28;20458;-89
2023/08/06 14:33:14;;;;;;;1.23;0.83;;;;;;;;;;4964680;28;20454;-89
2023/08/06 14:35:40;;;;;;;1.80;1.00;;;;;;;;;;4952183;28;20489;-88
2023/08/06 14:38:06;;;;;;;2.57;0.80;;;;;;;;;;4972050;28;20444;-89
2023/08/06 14:40:34;;;;;;;1.20;0.77;;;;;;;;;;4974877;28;20456;-89
2023/08/06 14:43:02;;;;;;;1.53;0.90;;;;;;;;;;4992261;28;20778;-89
2023/08/06 14:45:28;;;;;;;1.53;0.87;;;;;;;;;;5011148;28;20441;-88
2023/08/06 14:47:56;;;;;;;1.80;0.83;;;;;;;;;;5020472;28;20459;-89
2023/08/06 14:50:22;;;;;;;7.57;1.17;;;;;;;;;;4989576;28;20820;-88
2023/08/06 14:52:48;;;;;;;1.40;0.87;;;;;;;;;;5003801;28;20445;-89